Time;durP1;ratioP1;P1;durP2;ratioP2;P2;SDS_P1;SDS_P2;PMS_P1;PMS_P2;Temp;Humidity;BMP_temperature;BMP_pressure;BME280_temperature;BME280_humidity;BME280_pressure;Samples;Min_cycle;Max_cycle;Signal;HPM_P1;HPM_P2
2023/12/15 00:04:22;;;;;;;81.93;78.22;;;8.00;86.00;;;;;;12584928;28;20037;-72
2023/12/15 00:10:24;;;;;;;76.93;73.32;;;8.10;86.10;;;;;;12603120;28;20048;-72
2023/12/15 00:16:26;;;;;;;84.45;80.57;;;7.90;85.90;;;;;;12593885;28;20032;-72
2023/12/15 00:22:27;;;;;;;97.55;93.05;;;7.90;86.30;;;;;;12611405;28;20036;-72
2023/12/15 00:28:29;;;;;;;139.82;133.93;;;8.00;86.00;;;;;;12611843;28;20110;-73
2023/12/15 00:34:30;;;;;;;86.28;82.32;;;7.90;85.80;;;;;;12611605;28;20029;-78
2023/12/15 00:40:32;;;;;;;79.15;75.65;;;7.70;85.90;;;;;;12592820;28;20036;-72
2023/12/15 00:46:33;;;;;;;65.13;62.03;;;7.50;85.90;;;;;;12610457;28;20035;-72
2023/12/15 00:52:35;;;;;;;59.20;56.55;;;7.30;86.00;;;;;;12610100;28;20048;-72
2023/12/15 00:58:36;;;;;;;38.20;35.22;;;7.00;85.70;;;;;;12591827;28;20045;-73
2023/12/15 01:04:38;;;;;;;27.48;26.05;;;6.70;85.90;;;;;;12609531;28;20033;-73
2023/12/15 01:10:39;;;;;;;37.50;35.60;;;6.80;86.40;;;;;;12609338;28;20459;-73
2023/12/15 01:16:48;;;;;;;54.22;51.67;;;6.90;86.40;;;;;;12609023;28;20028;-73
2023/12/15 01:22:50;;;;;;;51.22;48.72;;;7.20;86.40;;;;;;12608097;28;20040;-73
2023/12/15 01:28:52;;;;;;;64.93;60.67;;;7.20;86.20;;;;;;12590602;28;20043;-73
2023/12/15 01:34:53;;;;;;;66.72;63.55;;;7.30;86.40;;;;;;12590424;28;20329;-77
2023/12/15 01:40:55;;;;;;;71.93;68.10;;;7.30;86.10;;;;;;12589936;28;20047;-77
2023/12/15 01:46:57;;;;;;;69.43;66.18;;;7.20;86.20;;;;;;12590028;28;20044;-77
2023/12/15 01:52:58;;;;;;;76.88;73.50;;;7.30;86.00;;;;;;12572957;28;20499;-77
2023/12/15 01:59:00;;;;;;;76.55;73.07;;;7.10;85.80;;;;;;12606867;28;20032;-77
2023/12/15 02:05:02;;;;;;;22.00;20.60;;;6.90;85.70;;;;;;12606531;28;20040;-77
2023/12/15 02:11:03;;;;;;;47.20;44.80;;;6.70;86.10;;;;;;12588466;28;20048;-77
2023/12/15 02:17:05;;;;;;;22.35;20.60;;;6.40;85.60;;;;;;12605996;28;20040;-77
2023/12/15 02:23:07;;;;;;;14.57;13.40;;;6.20;85.60;;;;;;12605682;28;20040;-77
2023/12/15 02:29:08;;;;;;;17.33;16.10;;;6.30;86.20;;;;;;12587773;28;20365;-77
2023/12/15 02:35:11;;;;;;;31.25;29.35;;;6.60;86.20;;;;;;12586613;28;20028;-77
2023/12/15 02:41:13;;;;;;;67.68;64.53;;;6.90;86.00;;;;;;12604928;28;20043;-77
2023/12/15 02:47:15;;;;;;;67.55;64.50;;;7.00;85.50;;;;;;12604761;28;20029;-77
2023/12/15 02:53:17;;;;;;;44.42;42.40;;;7.10;85.60;;;;;;12604549;28;20048;-73
2023/12/15 02:59:18;;;;;;;56.92;54.38;;;7.10;85.30;;;;;;12604373;28;20449;-73
2023/12/15 03:05:20;;;;;;;49.75;47.38;;;6.90;85.40;;;;;;12604219;28;20036;-73
2023/12/15 03:11:22;;;;;;;40.17;38.17;;;6.80;85.60;;;;;;12604091;28;20034;-73
2023/12/15 03:17:24;;;;;;;56.65;53.92;;;6.70;85.70;;;;;;12603970;28;20041;-73
2023/12/15 03:23:26;;;;;;;76.47;72.65;;;7.00;85.70;;;;;;12586583;28;20060;-73
2023/12/15 03:29:28;;;;;;;52.47;49.85;;;7.00;85.30;;;;;;12603616;28;20035;-73
2023/12/15 03:35:30;;;;;;;55.83;52.97;;;6.90;85.30;;;;;;12586439;28;20355;-73
2023/12/15 03:41:32;;;;;;;49.00;46.47;;;6.70;85.40;;;;;;12603274;28;20037;-73
2023/12/15 03:47:33;;;;;;;93.63;89.35;;;6.80;85.40;;;;;;12589497;28;20035;-73
2023/12/15 03:53:35;;;;;;;39.55;37.38;;;6.80;85.60;;;;;;12613018;28;20043;-73
2023/12/15 03:59:40;;;;;;;61.35;58.33;;;6.90;85.20;;;;;;12594715;28;20036;-73
2023/12/15 04:05:41;;;;;;;81.25;77.47;;;6.90;85.20;;;;;;12612299;28;20345;-73
2023/12/15 04:11:43;;;;;;;83.60;79.80;;;7.20;85.30;;;;;;12578045;28;20227;-73
2023/12/15 04:17:45;;;;;;;82.13;78.53;;;7.40;84.60;;;;;;12577520;28;20039;-73
2023/12/15 04:23:47;;;;;;;69.28;66.10;;;7.10;84.80;;;;;;12611492;28;20032;-73
2023/12/15 04:29:48;;;;;;;59.65;56.90;;;7.00;84.50;;;;;;12611298;28;20033;-73
2023/12/15 04:35:50;;;;;;;39.60;37.58;;;7.00;84.70;;;;;;12576546;28;20032;-73
2023/12/15 04:41:51;;;;;;;47.25;44.97;;;6.80;84.80;;;;;;12610667;28;20044;-73
2023/12/15 04:47:54;;;;;;;67.75;64.38;;;6.90;85.10;;;;;;12610517;28;20028;-73
2023/12/15 04:53:56;;;;;;;72.45;68.97;;;7.20;84.60;;;;;;12575759;28;20036;-73
2023/12/15 04:59:58;;;;;;;70.30;66.85;;;7.40;84.10;;;;;;12574485;28;20040;-77
2023/12/15 05:05:59;;;;;;;69.15;65.70;;;7.20;84.10;;;;;;12609651;28;20032;-77
2023/12/15 05:12:03;;;;;;;82.05;77.90;;;7.40;84.10;;;;;;12609462;28;20432;-77
2023/12/15 05:18:04;;;;;;;83.80;79.65;;;7.20;84.00;;;;;;12574847;28;20044;-77
2023/12/15 05:24:06;;;;;;;110.50;105.38;;;7.40;83.80;;;;;;12608731;28;20426;-77
2023/12/15 05:30:10;;;;;;;109.35;103.95;;;7.60;83.40;;;;;;12608569;28;20043;-73
2023/12/15 05:36:19;;;;;;;143.35;137.30;;;7.80;83.10;;;;;;12591079;28;20433;-73
2023/12/15 05:42:21;;;;;;;145.40;138.65;;;7.60;82.90;;;;;;12590002;28;20036;-73
2023/12/15 05:48:22;;;;;;;113.20;107.85;;;7.60;83.30;;;;;;12589868;28;20028;-73
2023/12/15 05:54:24;;;;;;;158.82;152.18;;;7.80;82.70;;;;;;12607202;28;20036;-74
2023/12/15 06:00:26;;;;;;;172.00;164.43;;;7.80;82.50;;;;;;12607000;28;20032;-77
2023/12/15 06:06:27;;;;;;;185.32;177.15;;;7.60;82.60;;;;;;12606612;28;20043;-77
2023/12/15 06:12:29;;;;;;;87.05;82.78;;;7.90;82.50;;;;;;12588311;28;20052;-77
2023/12/15 06:18:30;;;;;;;92.25;87.72;;;7.60;82.50;;;;;;12588456;28;20040;-77
2023/12/15 06:24:55;;;;;;;99.30;94.20;;;7.50;82.60;;;;;;12605830;28;20044;-73
2023/12/15 06:30:58;;;;;;;90.43;86.07;;;7.50;82.60;;;;;;12605519;28;20031;-73
2023/12/15 06:36:59;;;;;;;143.73;137.05;;;7.70;82.50;;;;;;12603395;28;20043;-74
2023/12/15 06:43:01;;;;;;;102.40;97.35;;;7.90;82.30;;;;;;12614095;28;20040;-74
2023/12/15 06:49:02;;;;;;;167.52;160.15;;;8.10;81.90;;;;;;12603893;28;20028;-73
2023/12/15 06:55:05;;;;;;;142.38;135.57;;;7.70;81.90;;;;;;12610333;22;20045;-74
2023/12/15 07:01:32;;;;;;;158.45;151.13;;;7.90;82.50;;;;;;12585978;28;20032;-74
2023/12/15 07:07:34;;;;;;;132.50;126.10;;;8.20;82.50;;;;;;12569720;28;20357;-74
2023/12/15 07:13:35;;;;;;;154.20;147.32;;;8.20;82.20;;;;;;12599069;28;20035;-74
2023/12/15 07:19:59;;;;;;;166.32;158.75;;;7.80;81.60;;;;;;12586240;28;20380;-74
2023/12/15 07:26:01;;;;;;;121.63;115.13;;;7.70;82.50;;;;;;12603357;28;20448;-74
2023/12/15 07:32:04;;;;;;;149.48;142.25;;;7.90;82.30;;;;;;12603694;28;20036;-77
2023/12/15 07:38:07;;;;;;;129.23;122.57;;;7.90;82.30;;;;;;12603577;28;20043;-77
2023/12/15 07:44:40;;;;;;;167.73;159.32;;;8.00;82.10;;;;;;12432301;28;20049;-77
2023/12/15 07:50:41;;;;;;;120.03;113.25;;;8.00;81.90;;;;;;12449437;28;20045;-77
2023/12/15 07:56:43;;;;;;;107.40;100.70;;;7.70;81.80;;;;;;12449243;28;20046;-77
2023/12/15 08:02:45;;;;;;;126.30;119.07;;;7.40;82.50;;;;;;12432872;28;20355;-77
2023/12/15 08:08:47;;;;;;;113.18;105.57;;;7.10;83.20;;;;;;12449024;28;20038;-77
2023/12/15 08:14:48;;;;;;;82.65;77.32;;;7.10;83.60;;;;;;12448835;28;20049;-77
2023/12/15 08:20:50;;;;;;;77.40;72.55;;;7.00;83.90;;;;;;12552284;28;20044;-77
2023/12/15 08:26:53;;;;;;;118.85;112.95;;;7.30;83.90;;;;;;12602265;28;20033;-77
2023/12/15 08:32:58;;;;;;;159.80;152.35;;;7.50;84.00;;;;;;12586192;28;20040;-77
2023/12/15 08:38:59;;;;;;;167.55;159.45;;;7.80;83.90;;;;;;12592875;28;20059;-76
2023/12/15 08:45:01;;;;;;;174.20;165.90;;;7.80;83.60;;;;;;12610398;28;20033;-77
2023/12/15 08:51:03;;;;;;;118.93;112.15;;;7.70;84.10;;;;;;12592489;28;20348;-77
2023/12/15 08:57:05;;;;;;;155.63;148.25;;;7.80;84.50;;;;;;12610294;28;20437;-77
2023/12/15 09:03:07;;;;;;;179.88;171.43;;;8.10;84.40;;;;;;12622943;28;20032;-77
2023/12/15 09:09:10;;;;;;;164.13;156.73;;;8.20;84.70;;;;;;12587242;28;20337;-77
2023/12/15 09:15:13;;;;;;;55.97;52.63;;;8.30;84.70;;;;;;12609253;28;20043;-77
2023/12/15 09:21:14;;;;;;;105.60;100.72;;;8.50;84.80;;;;;;12608914;28;20456;-77
2023/12/15 09:27:16;;;;;;;98.50;93.80;;;8.20;84.60;;;;;;12590907;28;20051;-77
2023/12/15 09:33:17;;;;;;;159.38;151.70;;;8.10;85.30;;;;;;12609044;28;20024;-77
2023/12/15 09:39:22;;;;;;;127.32;121.68;;;8.20;85.80;;;;;;12607995;28;20024;-77
2023/12/15 09:45:24;;;;;;;100.35;95.78;;;8.50;85.90;;;;;;12607244;28;20032;-77
2023/12/15 09:51:25;;;;;;;27.33;25.30;;;8.80;85.80;;;;;;12607394;28;20035;-76
2023/12/15 09:57:28;;;;;;;50.58;47.65;;;8.70;85.50;;;;;;12589191;28;20090;-76
2023/12/15 10:03:29;;;;;;;52.75;49.75;;;8.70;85.90;;;;;;12606775;28;20028;-76
2023/12/15 10:09:31;;;;;;;19.38;17.38;;;8.80;86.30;;;;;;12606532;28;20029;-76
2023/12/15 10:15:33;;;;;;;16.55;14.63;;;9.00;86.00;;;;;;12606221;28;20032;-76
2023/12/15 10:21:35;;;;;;;19.25;17.35;;;8.90;86.10;;;;;;12605675;28;20028;-76
2023/12/15 10:27:37;;;;;;;16.65;13.38;;;9.10;87.00;;;;;;12605730;28;20029;-76
2023/12/15 10:33:41;;;;;;;17.58;14.65;;;9.40;86.90;;;;;;12605375;28;20059;-76
2023/12/15 10:39:43;;;;;;;16.77;14.68;;;9.50;87.00;;;;;;12571430;28;20028;-72
2023/12/15 10:45:46;;;;;;;14.98;12.85;;;9.60;87.20;;;;;;12604896;28;20336;-72
2023/12/15 10:51:50;;;;;;;13.68;12.27;;;9.70;87.10;;;;;;12604818;28;20029;-72
2023/12/15 10:57:52;;;;;;;12.60;10.57;;;10.00;87.10;;;;;;12585785;28;20036;-72
2023/12/15 11:03:54;;;;;;;12.80;11.48;;;10.30;87.10;;;;;;12604271;28;20040;-72
2023/12/15 11:09:57;;;;;;;9.35;7.93;;;10.40;87.00;;;;;;12604192;28;20025;-72
2023/12/15 11:16:11;;;;;;;11.15;9.05;;;10.60;87.20;;;;;;12586384;28;20044;-72
2023/12/15 11:22:13;;;;;;;9.45;7.35;;;10.60;86.90;;;;;;12603690;28;20044;-72
2023/12/15 11:28:17;;;;;;;8.18;6.22;;;10.90;86.90;;;;;;12603731;28;20025;-72
2023/12/15 11:34:48;;;;;;;11.13;8.20;;;11.10;86.50;;;;;;12603625;28;20028;-72
2023/12/15 11:40:51;;;;;;;9.85;8.15;;;11.20;86.00;;;;;;12600910;28;20036;-72
2023/12/15 11:46:53;;;;;;;10.35;8.15;;;11.20;86.20;;;;;;12603208;28;20033;-72
2023/12/15 11:52:56;;;;;;;7.20;5.85;;;11.40;86.20;;;;;;12603072;28;20028;-72
2023/12/15 11:58:57;;;;;;;9.75;7.00;;;11.50;86.00;;;;;;12602985;28;20035;-72
2023/12/15 12:04:59;;;;;;;7.72;6.40;;;11.60;86.00;;;;;;12595102;28;20054;-72
2023/12/15 12:11:02;;;;;;;9.10;5.82;;;11.60;85.60;;;;;;12584459;28;20162;-72
2023/12/15 12:17:03;;;;;;;8.93;6.35;;;11.50;86.00;;;;;;12628352;28;20424;-71
2023/12/15 12:23:05;;;;;;;8.60;5.95;;;11.50;86.00;;;;;;12562474;28;20064;-71
2023/12/15 12:29:06;;;;;;;7.38;5.50;;;11.50;86.30;;;;;;12562430;28;20032;-71
2023/12/15 12:35:08;;;;;;;7.07;4.88;;;11.60;86.20;;;;;;12561502;28;20033;-71
2023/12/15 12:41:12;;;;;;;7.43;4.88;;;11.70;86.00;;;;;;12543463;28;20029;-71
2023/12/15 12:47:14;;;;;;;10.00;5.80;;;11.70;86.20;;;;;;12588972;28;20047;-71
2023/12/15 12:53:16;;;;;;;5.57;3.97;;;11.80;86.00;;;;;;12592695;28;20033;-71
2023/12/15 12:59:20;;;;;;;6.97;4.80;;;11.80;85.90;;;;;;12610059;28;20039;-71
2023/12/15 13:05:22;;;;;;;6.70;5.03;;;11.70;86.30;;;;;;12592080;28;20029;-71
2023/12/15 13:11:23;;;;;;;6.97;4.63;;;11.90;86.20;;;;;;12609604;28;20033;-71
2023/12/15 13:17:25;;;;;;;6.55;4.63;;;12.20;85.80;;;;;;12609327;28;20142;-71
2023/12/15 13:23:27;;;;;;;6.80;4.78;;;12.20;85.60;;;;;;12590040;28;20036;-71
2023/12/15 13:29:28;;;;;;;6.57;4.18;;;12.30;85.80;;;;;;12608694;28;20031;-75
2023/12/15 13:35:30;;;;;;;5.90;4.10;;;12.40;85.80;;;;;;12574497;28;20445;-75
2023/12/15 13:41:32;;;;;;;5.50;3.85;;;12.50;85.60;;;;;;12608097;28;20032;-75
2023/12/15 13:47:39;;;;;;;5.75;4.07;;;12.50;86.00;;;;;;12573898;28;20041;-75
2023/12/15 13:53:41;;;;;;;7.45;4.82;;;12.60;86.00;;;;;;12590090;28;20040;-74
2023/12/15 13:59:42;;;;;;;6.95;4.32;;;12.70;86.10;;;;;;12607122;28;20029;-75
2023/12/15 14:05:44;;;;;;;7.30;4.25;;;12.70;86.20;;;;;;12606854;28;20025;-75
2023/12/15 14:12:08;;;;;;;8.27;5.20;;;12.60;86.70;;;;;;12606662;28;20032;-75
2023/12/15 14:18:50;;;;;;;7.85;5.35;;;13.00;86.10;;;;;;12606244;28;20028;-75
2023/12/15 14:24:52;;;;;;;6.97;4.55;;;13.40;85.30;;;;;;12605829;28;20032;-75
2023/12/15 14:30:53;;;;;;;8.20;5.10;;;14.00;84.30;;;;;;12587943;28;20040;-75
2023/12/15 14:36:55;;;;;;;6.63;4.70;;;14.20;83.80;;;;;;12605406;28;20039;-75
2023/12/15 14:42:57;;;;;;;7.45;4.60;;;13.90;84.40;;;;;;12587434;28;20028;-72
2023/12/15 14:48:58;;;;;;;7.43;5.35;;;13.20;85.80;;;;;;12586893;28;20036;-71
2023/12/15 15:02:09;;;;;;;9.40;6.68;;;12.50;87.30;;;;;;12605176;28;20059;-75
2023/12/15 15:08:17;;;;;;;8.70;6.60;;;12.20;88.00;;;;;;12604321;28;20028;-75
2023/12/15 15:14:48;;;;;;;8.10;6.37;;;12.00;88.30;;;;;;12606186;28;20095;-75
2023/12/15 15:20:58;;;;;;;8.40;6.50;;;11.70;88.70;;;;;;12586689;28;20048;-75
2023/12/15 15:27:00;;;;;;;9.32;8.23;;;11.50;89.10;;;;;;12603744;28;20036;-75
2023/12/15 15:33:01;;;;;;;11.02;9.93;;;11.40;89.20;;;;;;12586634;28;20444;-75
2023/12/15 15:39:04;;;;;;;17.27;9.98;;;11.40;89.10;;;;;;12604404;28;20033;-75
2023/12/15 15:45:06;;;;;;;14.75;13.45;;;11.30;89.00;;;;;;12592349;28;20040;-75
2023/12/15 15:51:07;;;;;;;12.32;9.75;;;11.30;88.70;;;;;;12578935;28;20020;-75
2023/12/15 15:57:09;;;;;;;18.10;16.02;;;11.20;88.60;;;;;;12595074;28;20369;-75
2023/12/15 16:03:11;;;;;;;13.77;11.77;;;11.20;88.70;;;;;;12594691;28;20460;-75
2023/12/15 16:09:13;;;;;;;15.75;13.55;;;11.10;88.50;;;;;;12595352;28;20036;-75
2023/12/15 16:15:16;;;;;;;21.63;19.63;;;11.10;88.40;;;;;;12594339;28;20032;-75
2023/12/15 16:21:18;;;;;;;18.23;15.02;;;10.90;88.30;;;;;;12611889;28;20040;-75
2023/12/15 16:27:20;;;;;;;20.20;18.20;;;10.80;88.50;;;;;;12611546;28;20028;-75
2023/12/15 16:33:22;;;;;;;32.85;30.48;;;10.70;88.30;;;;;;12611340;28;20036;-75
2023/12/15 16:39:24;;;;;;;30.60;28.02;;;10.60;88.20;;;;;;12611010;28;20074;-75
2023/12/15 16:45:26;;;;;;;33.10;30.73;;;10.60;88.20;;;;;;12610500;28;20033;-75
2023/12/15 16:51:30;;;;;;;30.85;28.25;;;10.50;88.10;;;;;;12610383;28;20025;-75
2023/12/15 16:57:32;;;;;;;38.75;35.90;;;10.40;88.00;;;;;;12608842;28;20488;-75
2023/12/15 17:03:46;;;;;;;25.95;23.27;;;10.40;87.80;;;;;;12609821;28;20032;-75
2023/12/15 17:09:48;;;;;;;32.40;29.00;;;10.30;87.60;;;;;;12609593;28;20032;-75
2023/12/15 17:15:50;;;;;;;28.58;26.13;;;10.20;87.60;;;;;;12591626;28;20040;-75
2023/12/15 17:21:52;;;;;;;31.35;28.80;;;10.20;87.60;;;;;;12591932;28;20044;-75
2023/12/15 17:27:53;;;;;;;38.03;34.63;;;10.20;87.60;;;;;;12608719;28;20436;-75
2023/12/15 17:33:55;;;;;;;34.17;31.55;;;10.10;87.50;;;;;;12590675;28;20033;-71
2023/12/15 17:39:57;;;;;;;19.85;17.60;;;10.00;87.40;;;;;;12608408;28;20345;-71
2023/12/15 17:45:59;;;;;;;28.13;25.90;;;9.90;87.40;;;;;;12607748;28;20041;-71
2023/12/15 17:52:01;;;;;;;22.90;20.52;;;10.00;87.30;;;;;;12608248;28;20031;-71
2023/12/15 17:58:04;;;;;;;28.50;25.33;;;9.80;87.20;;;;;;12573703;28;20051;-72
2023/12/15 18:04:05;;;;;;;20.17;18.08;;;9.90;86.80;;;;;;12606558;28;20039;-72
2023/12/15 18:10:07;;;;;;;22.55;18.33;;;10.00;86.90;;;;;;12606615;28;20035;-72
2023/12/15 18:16:09;;;;;;;24.55;22.00;;;10.10;86.60;;;;;;12572526;28;20047;-72
2023/12/15 18:22:11;;;;;;;32.28;29.80;;;10.10;86.40;;;;;;12606138;28;20045;-72
2023/12/15 18:28:13;;;;;;;33.53;30.67;;;10.20;86.20;;;;;;12605638;28;20033;-71
2023/12/15 18:34:15;;;;;;;19.95;18.17;;;10.10;86.00;;;;;;12605547;28;20043;-71
2023/12/15 18:40:17;;;;;;;19.67;17.77;;;10.10;86.10;;;;;;12587534;28;20040;-72
2023/12/15 18:46:38;;;;;;;15.73;14.10;;;10.00;85.90;;;;;;12604987;28;20032;-72
2023/12/15 18:52:39;;;;;;;22.13;19.90;;;9.90;85.70;;;;;;12604896;28;20032;-72
2023/12/15 18:58:44;;;;;;;23.38;20.98;;;9.70;85.60;;;;;;12587203;28;20441;-72
2023/12/15 19:04:46;;;;;;;24.75;22.35;;;9.80;85.80;;;;;;12604471;28;20036;-72
2023/12/15 19:10:47;;;;;;;25.77;23.38;;;9.70;85.70;;;;;;12586468;28;20044;-72
2023/12/15 19:16:51;;;;;;;23.88;21.33;;;9.70;85.70;;;;;;12603439;28;20043;-72
2023/12/15 19:22:53;;;;;;;21.77;18.92;;;9.70;85.50;;;;;;12603962;28;20033;-72
2023/12/15 19:28:58;;;;;;;24.60;20.77;;;9.70;85.40;;;;;;12603868;28;20033;-71
2023/12/15 19:35:00;;;;;;;31.63;28.65;;;9.70;85.80;;;;;;12585836;28;20031;-72
2023/12/15 19:41:02;;;;;;;31.95;29.23;;;9.60;85.90;;;;;;12603593;28;20044;-72
2023/12/15 19:47:04;;;;;;;27.65;25.35;;;9.50;85.90;;;;;;12585417;28;20029;-72
2023/12/15 19:53:06;;;;;;;28.38;25.75;;;9.50;86.20;;;;;;12585393;28;20036;-72
2023/12/15 19:59:08;;;;;;;20.80;18.90;;;9.40;86.70;;;;;;12603093;28;20036;-72
2023/12/15 20:05:11;;;;;;;19.88;17.98;;;9.30;87.00;;;;;;12585112;28;20043;-72
2023/12/15 20:11:12;;;;;;;23.65;21.75;;;9.40;86.80;;;;;;12602886;28;20024;-72
2023/12/15 20:17:14;;;;;;;27.10;25.27;;;9.30;86.80;;;;;;12584842;28;20043;-72
2023/12/15 20:23:17;;;;;;;22.63;20.63;;;9.30;87.30;;;;;;12603150;28;20029;-71
2023/12/15 20:29:28;;;;;;;31.25;29.30;;;9.40;86.90;;;;;;12605753;28;20029;-71
2023/12/15 20:35:30;;;;;;;18.42;16.98;;;9.40;86.70;;;;;;12611319;28;20028;-71
2023/12/15 20:41:32;;;;;;;22.42;20.77;;;9.30;86.80;;;;;;12610934;28;20040;-71
2023/12/15 20:47:35;;;;;;;20.05;18.23;;;9.30;87.00;;;;;;12610662;28;20035;-71
2023/12/15 20:53:37;;;;;;;34.42;32.03;;;9.20;86.80;;;;;;12610544;28;20032;-71
2023/12/15 20:59:40;;;;;;;53.10;50.05;;;9.20;86.80;;;;;;12610134;28;20033;-71
2023/12/15 21:05:41;;;;;;;46.50;43.80;;;9.20;86.70;;;;;;12609821;28;20037;-71
2023/12/15 21:11:56;;;;;;;70.30;66.80;;;9.10;86.50;;;;;;12609657;28;20024;-73
2023/12/15 21:17:58;;;;;;;49.83;46.78;;;9.10;86.50;;;;;;12609238;28;20039;-72
2023/12/15 21:24:01;;;;;;;72.45;68.72;;;9.00;86.30;;;;;;12609004;28;20032;-72
2023/12/15 21:30:03;;;;;;;57.92;55.13;;;9.00;86.30;;;;;;12608834;28;20032;-72
2023/12/15 21:36:09;;;;;;;53.85;50.90;;;9.00;86.40;;;;;;12608442;28;20028;-72
2023/12/15 21:42:11;;;;;;;56.88;54.03;;;8.90;86.10;;;;;;12589745;28;20048;-71
2023/12/15 21:48:12;;;;;;;84.68;80.28;;;8.90;86.20;;;;;;12608487;28;20033;-71
2023/12/15 21:54:14;;;;;;;51.35;48.67;;;8.80;86.20;;;;;;12607628;28;20036;-71
2023/12/15 22:00:16;;;;;;;77.65;73.93;;;8.90;86.20;;;;;;12607305;28;20028;-71
2023/12/15 22:06:20;;;;;;;71.18;67.40;;;8.70;85.90;;;;;;12606964;28;20043;-71
2023/12/15 22:12:21;;;;;;;73.65;69.68;;;8.70;86.10;;;;;;12606692;28;20354;-71
2023/12/15 22:18:24;;;;;;;74.22;70.45;;;8.70;86.00;;;;;;12606569;28;20033;-72
2023/12/15 22:24:27;;;;;;;107.07;102.18;;;8.70;85.70;;;;;;12606049;28;20037;-71
2023/12/15 22:30:32;;;;;;;100.43;95.93;;;8.60;85.60;;;;;;12588796;28;20044;-71
2023/12/15 22:36:34;;;;;;;77.78;73.80;;;8.60;85.50;;;;;;12606215;28;20040;-71
2023/12/15 22:42:36;;;;;;;102.75;97.82;;;8.50;85.50;;;;;;12587468;28;20361;-72
2023/12/15 22:48:41;;;;;;;96.75;92.05;;;8.50;85.30;;;;;;12604925;28;20047;-71
2023/12/15 22:54:42;;;;;;;105.03;100.28;;;8.40;85.20;;;;;;12609961;22;20638;-72
2023/12/15 23:00:44;;;;;;;104.63;99.40;;;8.40;85.30;;;;;;12604639;28;20033;-72
2023/12/15 23:06:46;;;;;;;105.95;100.97;;;8.20;85.20;;;;;;12586454;28;20036;-72
2023/12/15 23:12:48;;;;;;;85.57;81.63;;;8.20;85.20;;;;;;12604188;28;20028;-72
2023/12/15 23:18:49;;;;;;;85.20;81.07;;;8.20;85.10;;;;;;12604088;28;20036;-71
2023/12/15 23:24:52;;;;;;;79.95;76.00;;;8.00;85.00;;;;;;12603915;28;20345;-72
2023/12/15 23:30:53;;;;;;;74.20;70.80;;;7.90;85.30;;;;;;12603850;28;20094;-72
2023/12/15 23:36:55;;;;;;;91.50;87.05;;;8.00;85.30;;;;;;12585835;28;20039;-72
2023/12/15 23:42:57;;;;;;;83.65;79.50;;;8.10;85.10;;;;;;12603476;28;20032;-72
2023/12/15 23:49:01;;;;;;;81.65;77.75;;;8.00;84.90;;;;;;12603410;28;20036;-72
2023/12/15 23:55:04;;;;;;;81.35;77.45;;;8.10;85.10;;;;;;12585514;28;20032;-72
